Dragonera — 9HA2475 — position and weather

sailwx.info

Track history (hours):
 
Tides and Currents Weather Stations Pressure Air Temp Water Temp Dewpoint Dewpoint Depression Visibility Wind Speed Wind Dir Waves Ship Positions

Dragonera

Last reported at 2016-May-17 06:29 UTC. Time now 2016-May-27 22:08 UTC.
Position N 36°23' E 014°51'.
Warning: this ship's position is 10 days out of date.

Length 180 m; draft 9.9 m.

Type: Cargo ship. MMSI: 248698000.

Date/timePositionNaut miles runAvg speedWind from/ knotsBaromVisibWave heightAir tempDewpointWater temp
2016-May-17 06:29N 36°23' E 014°51'1713.9
2016-May-17 05:17N 36°29' E 014°32'1013.9
2016-May-17 04:33N 36°34' E 014°21'1414.1
2016-May-17 03:34N 36°40' E 014°06'1414.3
2016-May-17 02:33N 36°47' E 013°50'1414.0
2016-May-17 01:33N 36°54' E 013°35'65113.0
2016-May-14 23:33N 36°48' E 000°02'4013.3
2016-May-14 20:33N 36°34' W 000°45'22514.0
2016-May-14 04:34N 35°59' W 005°20'26911.7
2016-May-13 05:32N 38°28' W 010°01'1413.6
2016-May-13 04:32N 38°41' W 010°06'63713.2
2016-May-11 04:22N 48°50' W 005°50'1212.1
2016-May-11 03:24N 48°59' W 005°38'1113.2
2016-May-11 02:33N 49°04' W 005°24'1514.2
2016-May-11 01:31N 49°12' W 005°04'1414.5
2016-May-11 00:32N 49°19' W 004°45'1713.8
2016-May-10 23:18N 49°27' W 004°23'3311.9
2016-May-10 20:33N 49°44' W 003°39'1111.2
2016-May-10 19:33N 49°49' W 003°24'1312.0
2016-May-10 18:31N 49°55' W 003°07'1613.8
2016-May-10 17:21N 50°01' W 002°44'9912.7
2016-May-10 09:33N 50°27' W 000°14'1312.3
2016-May-10 08:32N 50°31' E 000°04'1413.9
2016-May-10 07:33N 50°34' E 000°25'4113.3
2016-May-10 04:30N 50°59' E 001°17'1010.2
2016-May-10 03:33N 51°05' E 001°29'10 9.7
2016-May-10 02:33N 51°11' E 001°41'1010.5
2016-May-10 01:34N 51°19' E 001°50'1312.7
2016-May-10 00:33N 51°30' E 002°02'1514.6
2016-May-09 23:33N 51°41' E 002°17'5614.0
2016-May-09 19:32N 52°36' E 002°39'1412.4
2016-May-09 18:22N 52°50' E 002°39'1511.4
2016-May-09 17:06N 53°05' E 002°38'39212.0
2016-May-08 08:32N 57°49' E 010°35'9 9.4
2016-May-08 07:33N 57°41' E 010°43'2 1.9
2016-May-08 06:32N 57°40' E 010°40'0 0.0
2016-May-08 05:32N 57°40' E 010°40'0 0.0
2016-May-08 04:26N 57°40' E 010°40'0 0.0
2016-May-08 03:32N 57°40' E 010°40'0 0.0
2016-May-08 00:14N 57°40' E 010°40'0 0.0
2016-May-07 21:14N 57°40' E 010°40'0 0.0
2016-May-07 20:23N 57°40' E 010°39'0 0.1
2016-May-07 19:32N 57°40' E 010°39'1 1.2
2016-May-07 18:28N 57°39' E 010°40'9 9.3
2016-May-07 17:33N 57°35' E 010°54'1312.5
2016-May-07 16:33N 57°32' E 011°16'1211.8
2016-May-07 15:33N 57°22' E 011°30'1312.8
2016-May-07 14:33N 57°11' E 011°38'1312.8
2016-May-07 13:33N 56°58' E 011°45'1312.8
2016-May-07 12:33N 56°46' E 011°53'1513.4
2016-May-07 11:27N 56°33' E 011°41'3813.0
2016-May-07 08:33N 56°01' E 011°05'1313.1
2016-May-07 07:32N 55°50' E 010°51'  
Track history (hours):
 
Tides and Currents Weather Stations Pressure Air Temp Water Temp Dewpoint Dewpoint Depression Visibility Wind Speed Wind Dir Waves Ship Positions

Dragonera

Last reported at 2016-May-17 06:29 UTC. Time now 2016-May-27 22:08 UTC.
Position N 36°23' E 014°51'.
Warning: this ship's position is 10 days out of date.

Length 180 m; draft 9.9 m.

Type: Cargo ship. MMSI: 248698000.

Date/timePositionNaut miles runAvg speedWind from/ knotsBaromVisibWave heightAir tempDewpointWater temp
2016-May-17 06:29N 36°23' E 014°51'1713.9
2016-May-17 05:17N 36°29' E 014°32'1013.9
2016-May-17 04:33N 36°34' E 014°21'1414.1
2016-May-17 03:34N 36°40' E 014°06'1414.3
2016-May-17 02:33N 36°47' E 013°50'1414.0
2016-May-17 01:33N 36°54' E 013°35'65113.0
2016-May-14 23:33N 36°48' E 000°02'4013.3
2016-May-14 20:33N 36°34' W 000°45'22514.0
2016-May-14 04:34N 35°59' W 005°20'26911.7
2016-May-13 05:32N 38°28' W 010°01'1413.6
2016-May-13 04:32N 38°41' W 010°06'63713.2
2016-May-11 04:22N 48°50' W 005°50'1212.1
2016-May-11 03:24N 48°59' W 005°38'1113.2
2016-May-11 02:33N 49°04' W 005°24'1514.2
2016-May-11 01:31N 49°12' W 005°04'1414.5
2016-May-11 00:32N 49°19' W 004°45'1713.8
2016-May-10 23:18N 49°27' W 004°23'3311.9
2016-May-10 20:33N 49°44' W 003°39'1111.2
2016-May-10 19:33N 49°49' W 003°24'1312.0
2016-May-10 18:31N 49°55' W 003°07'1613.8
2016-May-10 17:21N 50°01' W 002°44'9912.7
2016-May-10 09:33N 50°27' W 000°14'1312.3
2016-May-10 08:32N 50°31' E 000°04'1413.9
2016-May-10 07:33N 50°34' E 000°25'4113.3
2016-May-10 04:30N 50°59' E 001°17'1010.2
2016-May-10 03:33N 51°05' E 001°29'10 9.7
2016-May-10 02:33N 51°11' E 001°41'1010.5
2016-May-10 01:34N 51°19' E 001°50'1312.7
2016-May-10 00:33N 51°30' E 002°02'1514.6
2016-May-09 23:33N 51°41' E 002°17'5614.0
2016-May-09 19:32N 52°36' E 002°39'1412.4
2016-May-09 18:22N 52°50' E 002°39'1511.4
2016-May-09 17:06N 53°05' E 002°38'39212.0
2016-May-08 08:32N 57°49' E 010°35'9 9.4
2016-May-08 07:33N 57°41' E 010°43'2 1.9
2016-May-08 06:32N 57°40' E 010°40'0 0.0
2016-May-08 05:32N 57°40' E 010°40'0 0.0
2016-May-08 04:26N 57°40' E 010°40'0 0.0
2016-May-08 03:32N 57°40' E 010°40'0 0.0
2016-May-08 00:14N 57°40' E 010°40'0 0.0
2016-May-07 21:14N 57°40' E 010°40'0 0.0
2016-May-07 20:23N 57°40' E 010°39'0 0.1
2016-May-07 19:32N 57°40' E 010°39'1 1.2
2016-May-07 18:28N 57°39' E 010°40'9 9.3
2016-May-07 17:33N 57°35' E 010°54'1312.5
2016-May-07 16:33N 57°32' E 011°16'1211.8
2016-May-07 15:33N 57°22' E 011°30'1312.8
2016-May-07 14:33N 57°11' E 011°38'1312.8
2016-May-07 13:33N 56°58' E 011°45'1312.8
2016-May-07 12:33N 56°46' E 011°53'1513.4
2016-May-07 11:27N 56°33' E 011°41'3813.0
2016-May-07 08:33N 56°01' E 011°05'1313.1
2016-May-07 07:32N 55°50' E 010°51'  

Dump ship's entire track history